createdAt,value
2023-05-06T00:02:17.284Z,20.88
2023-05-06T00:04:43.713Z,20.87
2023-05-06T00:07:09.998Z,20.84
2023-05-06T00:09:38.420Z,20.83
2023-05-06T00:12:04.625Z,20.82
2023-05-06T00:14:31.028Z,20.79
2023-05-06T00:16:57.248Z,20.78
2023-05-06T00:19:23.553Z,20.76
2023-05-06T00:21:49.877Z,20.75
2023-05-06T00:24:16.091Z,20.73
2023-05-06T00:26:45.444Z,20.72
2023-05-06T00:29:11.906Z,20.70
2023-05-06T00:31:38.228Z,20.69
2023-05-06T00:34:04.476Z,20.67
2023-05-06T00:36:30.723Z,20.66
2023-05-06T00:38:56.921Z,20.65
2023-05-06T00:41:24.306Z,20.62
2023-05-06T00:43:50.546Z,20.61
2023-05-06T00:46:16.925Z,20.60
2023-05-06T00:48:43.230Z,20.57
2023-05-06T00:51:09.556Z,20.55
2023-05-06T00:53:35.797Z,20.53
2023-05-06T00:56:02.150Z,20.50
2023-05-06T00:58:28.571Z,20.49
2023-05-06T01:00:54.873Z,20.46
2023-05-06T01:03:21.295Z,20.43
2023-05-06T01:05:47.684Z,20.43
2023-05-06T01:08:13.987Z,20.41
2023-05-06T01:10:40.415Z,20.46
2023-05-06T01:13:06.779Z,20.48
2023-05-06T01:15:33.127Z,20.46
2023-05-06T01:17:59.554Z,20.42
2023-05-06T01:20:26.213Z,20.39
2023-05-06T01:22:52.811Z,20.36
2023-05-06T01:25:19.148Z,20.34
2023-05-06T01:27:45.475Z,20.31
2023-05-06T01:30:11.815Z,20.28
2023-05-06T01:32:38.099Z,20.27
2023-05-06T01:35:04.577Z,20.24
2023-05-06T01:37:32.867Z,20.24
2023-05-06T01:39:59.194Z,20.23
2023-05-06T01:42:25.644Z,20.22
2023-05-06T01:44:52.259Z,20.21
2023-05-06T01:47:18.638Z,20.20
2023-05-06T01:49:45.063Z,20.19
2023-05-06T01:52:11.550Z,20.17
2023-05-06T01:54:37.938Z,20.16
2023-05-06T01:57:06.540Z,20.15
2023-05-06T01:59:33.222Z,20.13
2023-05-06T02:02:00.936Z,20.12
2023-05-06T02:04:27.596Z,20.11
2023-05-06T02:06:54.067Z,20.10
2023-05-06T02:09:20.547Z,20.09
2023-05-06T02:11:47.055Z,20.07
2023-05-06T02:14:13.470Z,20.05
2023-05-06T02:16:40.328Z,20.05
2023-05-06T02:19:06.665Z,20.02
2023-05-06T02:21:33.060Z,20.01
2023-05-06T02:23:59.489Z,19.99
2023-05-06T02:26:25.987Z,19.98
2023-05-06T02:28:52.348Z,19.95
2023-05-06T02:31:18.898Z,19.94
2023-05-06T02:33:45.577Z,19.93
2023-05-06T02:36:12.029Z,19.91
2023-05-06T02:38:38.553Z,19.89
2023-05-06T02:41:04.887Z,19.87
2023-05-06T02:43:31.350Z,19.86
2023-05-06T02:46:01.003Z,19.85
2023-05-06T02:48:27.504Z,19.85
2023-05-06T02:50:53.867Z,19.85
2023-05-06T02:53:20.283Z,19.85
2023-05-06T02:55:46.645Z,19.84
2023-05-06T02:58:13.148Z,19.81
2023-05-06T03:00:39.516Z,19.82
2023-05-06T03:03:05.820Z,19.80
2023-05-06T03:05:32.791Z,19.81
2023-05-06T03:07:59.111Z,19.78
2023-05-06T03:10:25.527Z,19.77
2023-05-06T03:12:52.084Z,19.77
2023-05-06T03:15:18.431Z,19.77
2023-05-06T03:17:44.814Z,19.76
2023-05-06T03:20:14.131Z,19.75
2023-05-06T03:22:40.515Z,19.75
2023-05-06T03:25:07.025Z,19.74
2023-05-06T03:27:33.398Z,19.72
2023-05-06T03:29:59.727Z,19.70
2023-05-06T03:32:26.108Z,19.70
2023-05-06T03:34:52.422Z,19.69
2023-05-06T03:37:18.781Z,19.67
2023-05-06T03:39:45.289Z,19.67
2023-05-06T03:42:13.387Z,19.64
2023-05-06T03:44:39.732Z,19.62
2023-05-06T03:47:06.121Z,19.61
2023-05-06T03:49:32.556Z,19.60
2023-05-06T03:51:58.851Z,19.60
2023-05-06T03:54:27.474Z,19.58
2023-05-06T03:56:53.845Z,19.57
2023-05-06T03:59:20.237Z,19.57
2023-05-06T04:01:46.725Z,19.57
2023-05-06T04:04:13.035Z,19.55
2023-05-06T04:06:39.362Z,19.56
2023-05-06T04:09:05.788Z,19.55
2023-05-06T04:11:32.132Z,19.54
2023-05-06T04:13:58.593Z,19.54
2023-05-06T04:16:25.306Z,19.53
2023-05-06T04:18:51.846Z,19.52
2023-05-06T04:21:18.380Z,19.52
2023-05-06T04:23:44.792Z,19.50
2023-05-06T04:26:11.399Z,19.50
2023-05-06T04:28:37.860Z,19.49
2023-05-06T04:31:04.242Z,19.48
2023-05-06T04:33:30.635Z,19.47
2023-05-06T04:35:57.153Z,19.48
2023-05-06T04:38:23.515Z,19.48
2023-05-06T04:40:50.029Z,19.48
2023-05-06T04:43:17.684Z,19.49
2023-05-06T04:45:44.146Z,19.47
2023-05-06T04:48:10.537Z,19.48
2023-05-06T04:50:37.101Z,19.51
2023-05-06T04:53:03.417Z,19.60
2023-05-06T04:55:30.264Z,19.60
2023-05-06T04:57:56.889Z,19.57
2023-05-06T05:00:23.250Z,19.57
2023-05-06T05:02:49.859Z,19.58
2023-05-06T05:05:16.259Z,19.61
2023-05-06T05:07:42.626Z,19.63
2023-05-06T05:10:08.914Z,19.67
2023-05-06T05:12:35.929Z,19.68
2023-05-06T05:15:02.293Z,19.69
2023-05-06T05:17:28.681Z,19.67
2023-05-06T05:19:55.049Z,19.66
2023-05-06T05:22:21.488Z,19.65
2023-05-06T05:24:47.878Z,19.73
2023-05-06T05:27:14.303Z,19.93
2023-05-06T05:29:40.819Z,19.90
2023-05-06T05:32:07.164Z,19.96
2023-05-06T05:34:33.672Z,20.09
2023-05-06T05:37:00.012Z,20.05
2023-05-06T05:39:26.338Z,20.06
2023-05-06T05:41:52.719Z,20.07
2023-05-06T05:44:19.215Z,20.08
2023-05-06T05:46:45.774Z,20.59
2023-05-06T05:49:12.117Z,20.80
2023-05-06T05:51:38.654Z,21.05
2023-05-06T05:54:04.952Z,21.08
2023-05-06T05:56:31.448Z,20.91
2023-05-06T05:58:57.776Z,20.92
2023-05-06T06:01:24.095Z,20.84
2023-05-06T06:03:50.605Z,20.73
2023-05-06T06:06:17.107Z,20.69
2023-05-06T06:08:43.461Z,20.69
2023-05-06T06:11:10.069Z,20.75
2023-05-06T06:13:36.507Z,20.76
2023-05-06T06:16:03.030Z,20.73
2023-05-06T06:18:29.473Z,20.76
2023-05-06T06:20:56.006Z,20.85
2023-05-06T06:23:22.419Z,21.05
2023-05-06T06:25:48.914Z,21.03
2023-05-06T06:28:15.456Z,21.00
2023-05-06T06:30:41.786Z,21.18
2023-05-06T06:33:08.299Z,21.68
2023-05-06T06:35:34.739Z,21.63
2023-05-06T06:38:04.472Z,21.75
2023-05-06T06:40:31.066Z,21.63
2023-05-06T06:42:57.395Z,21.57
2023-05-06T06:45:23.778Z,21.61
2023-05-06T06:47:50.232Z,21.56
2023-05-06T06:50:16.702Z,21.86
2023-05-06T06:52:43.145Z,21.98
2023-05-06T06:55:09.803Z,21.89
2023-05-06T06:57:36.286Z,22.18
2023-05-06T07:00:02.822Z,22.75
2023-05-06T07:02:29.152Z,22.72
2023-05-06T07:04:55.552Z,22.29
2023-05-06T07:07:21.898Z,22.37
2023-05-06T07:09:48.168Z,22.69
2023-05-06T07:12:14.508Z,22.47
2023-05-06T07:14:40.815Z,22.86
2023-05-06T07:17:07.146Z,23.03
2023-05-06T07:19:33.440Z,23.16
2023-05-06T07:21:59.694Z,22.91
2023-05-06T07:24:26.007Z,22.80
2023-05-06T07:26:52.401Z,22.98
2023-05-06T07:29:18.835Z,23.13
2023-05-06T07:31:45.377Z,23.31
2023-05-06T07:34:11.854Z,23.36
2023-05-06T07:36:39.993Z,23.60
2023-05-06T07:39:06.692Z,23.83
2023-05-06T07:41:33.260Z,23.51
2023-05-06T07:43:59.620Z,23.59
2023-05-06T07:46:26.115Z,23.31
2023-05-06T07:48:52.625Z,23.14
2023-05-06T07:51:19.205Z,23.05
2023-05-06T07:53:45.654Z,23.65
2023-05-06T07:56:12.553Z,24.32
2023-05-06T07:58:38.964Z,24.58
2023-05-06T08:01:05.407Z,24.77
2023-05-06T08:06:26.074Z,25.54
2023-05-06T08:08:52.588Z,26.00
2023-05-06T08:11:20.943Z,26.30
2023-05-06T08:13:48.614Z,26.11
2023-05-06T08:16:17.895Z,24.97
2023-05-06T08:18:46.711Z,24.71
2023-05-06T08:21:15.291Z,24.39
2023-05-06T08:23:41.541Z,24.16
2023-05-06T08:26:07.873Z,25.08
2023-05-06T08:28:34.462Z,26.12
2023-05-06T08:31:03.289Z,26.77
2023-05-06T08:33:29.678Z,27.17
2023-05-06T08:35:55.950Z,27.41
2023-05-06T08:38:22.395Z,27.49
2023-05-06T08:40:49.227Z,26.09
2023-05-06T08:43:15.851Z,25.63
2023-05-06T08:45:42.198Z,25.58
2023-05-06T08:48:08.908Z,26.83
2023-05-06T08:50:35.275Z,27.35
2023-05-06T08:53:01.773Z,27.28
2023-05-06T08:55:28.247Z,27.16
2023-05-06T08:57:54.612Z,26.39
2023-05-06T09:00:21.090Z,25.52
2023-05-06T09:02:47.530Z,25.16
2023-05-06T09:05:13.958Z,24.96
2023-05-06T09:07:40.308Z,24.91
2023-05-06T09:10:06.860Z,24.91
2023-05-06T09:12:33.515Z,24.93
2023-05-06T09:14:59.970Z,24.97
2023-05-06T09:17:26.654Z,25.01
2023-05-06T09:19:55.303Z,25.01
2023-05-06T09:22:22.966Z,25.02
2023-05-06T09:24:49.396Z,25.04
2023-05-06T09:27:16.171Z,25.01
2023-05-06T09:29:42.791Z,24.96
2023-05-06T09:32:09.296Z,25.02
2023-05-06T09:34:35.862Z,24.98
2023-05-06T09:37:02.319Z,25.05
2023-05-06T09:39:28.775Z,25.06
2023-05-06T09:41:55.171Z,25.04
2023-05-06T09:44:21.658Z,25.06
2023-05-06T09:46:48.200Z,25.08
2023-05-06T09:49:14.701Z,25.08
2023-05-06T09:51:41.076Z,25.04
2023-05-06T09:54:07.675Z,25.04
2023-05-06T09:56:33.974Z,25.04
2023-05-06T09:59:02.324Z,25.07
2023-05-06T10:01:36.208Z,25.12
2023-05-06T10:04:04.019Z,25.16
2023-05-06T10:06:30.638Z,25.18
2023-05-06T10:08:56.884Z,25.17
2023-05-06T10:11:23.110Z,25.19
2023-05-06T10:13:49.394Z,25.24
2023-05-06T10:16:15.929Z,25.25
2023-05-06T10:18:42.398Z,25.23
2023-05-06T10:21:08.610Z,25.17
2023-05-06T10:23:36.168Z,25.23
2023-05-06T10:26:02.542Z,25.24
2023-05-06T10:28:30.969Z,25.27
2023-05-06T10:30:57.999Z,25.27
2023-05-06T10:33:24.238Z,25.26
2023-05-06T10:35:50.454Z,25.27
2023-05-06T10:38:16.665Z,25.26
2023-05-06T10:40:43.112Z,25.20
2023-05-06T10:43:09.374Z,25.15
2023-05-06T10:46:01.577Z,25.11
2023-05-06T10:48:27.681Z,25.09
2023-05-06T10:50:54.025Z,25.09
2023-05-06T10:53:20.404Z,25.13
2023-05-06T10:55:46.826Z,25.19
2023-05-06T10:58:13.031Z,25.26
2023-05-06T11:00:39.300Z,25.32
2023-05-06T11:03:05.727Z,25.36
2023-05-06T11:05:32.277Z,25.40
2023-05-06T11:08:00.525Z,25.43
2023-05-06T11:10:29.148Z,25.48
2023-05-06T11:12:55.482Z,25.51
2023-05-06T11:15:23.163Z,25.54
2023-05-06T11:17:53.927Z,25.55
2023-05-06T11:20:20.490Z,25.50
2023-05-06T11:22:46.788Z,25.42
2023-05-06T11:25:13.156Z,25.44
2023-05-06T11:27:41.524Z,25.43
2023-05-06T11:30:07.932Z,25.36
2023-05-06T11:32:34.484Z,25.35
2023-05-06T11:35:01.034Z,25.34
2023-05-06T11:37:27.697Z,25.36
2023-05-06T11:39:54.302Z,25.39
2023-05-06T11:42:20.783Z,25.41
2023-05-06T11:44:47.259Z,25.43
2023-05-06T11:47:13.646Z,25.46
2023-05-06T11:49:40.193Z,25.50
2023-05-06T11:52:06.705Z,25.50
2023-05-06T11:54:33.235Z,25.52
2023-05-06T11:56:59.677Z,25.54
2023-05-06T11:59:26.140Z,25.55
2023-05-06T12:01:52.706Z,25.54
2023-05-06T12:04:20.862Z,25.56
2023-05-06T12:06:48.118Z,25.57
2023-05-06T12:09:14.613Z,25.58
2023-05-06T12:11:42.562Z,25.54
2023-05-06T12:14:10.263Z,25.50
2023-05-06T12:16:36.765Z,25.45
2023-05-06T12:19:03.137Z,25.42
2023-05-06T12:21:32.028Z,25.38
2023-05-06T12:23:58.644Z,25.33
2023-05-06T12:26:25.068Z,25.33
2023-05-06T12:31:19.981Z,25.33
2023-05-06T12:33:46.525Z,25.29
2023-05-06T12:36:12.925Z,25.26
2023-05-06T12:38:39.335Z,25.26
2023-05-06T12:41:05.640Z,25.24
2023-05-06T12:43:32.133Z,25.24
2023-05-06T12:45:58.471Z,25.21
2023-05-06T12:48:24.856Z,25.19
2023-05-06T12:53:42.500Z,25.17
2023-05-06T12:56:08.783Z,25.16
2023-05-06T12:58:35.069Z,25.11
2023-05-06T13:01:01.396Z,25.11
2023-05-06T13:03:28.198Z,25.12
2023-05-06T13:05:54.644Z,25.12
2023-05-06T13:08:20.949Z,25.11
2023-05-06T13:10:47.298Z,25.09
2023-05-06T13:13:13.641Z,25.04
2023-05-06T13:15:40.294Z,25.00
2023-05-06T13:18:07.127Z,24.95
2023-05-06T13:20:33.510Z,24.92
2023-05-06T13:23:00.008Z,24.94
2023-05-06T13:25:26.357Z,24.93
2023-05-06T13:27:52.679Z,24.93
2023-05-06T13:30:19.140Z,24.93
2023-05-06T13:32:45.493Z,24.94
2023-05-06T13:35:12.195Z,24.96
2023-05-06T13:37:38.788Z,24.97
2023-05-06T13:40:05.609Z,24.98
2023-05-06T13:42:32.112Z,25.00
2023-05-06T13:44:58.536Z,25.02
2023-05-06T13:47:25.019Z,25.00
2023-05-06T13:49:51.373Z,25.01
2023-05-06T13:52:17.699Z,25.00
2023-05-06T13:54:44.069Z,25.02
2023-05-06T13:57:10.385Z,25.02
2023-05-06T13:59:36.765Z,25.02
2023-05-06T14:02:04.610Z,25.01
2023-05-06T14:04:32.712Z,25.01
2023-05-06T14:06:59.269Z,24.97
2023-05-06T14:09:26.744Z,24.95
2023-05-06T14:11:52.934Z,24.95
2023-05-06T14:14:19.203Z,24.92
2023-05-06T14:16:45.550Z,24.91
2023-05-06T14:19:11.827Z,24.89
2023-05-06T14:21:39.097Z,24.85
2023-05-06T14:24:07.333Z,24.86
2023-05-06T14:26:34.233Z,24.86
2023-05-06T14:29:00.566Z,24.86
2023-05-06T14:31:26.810Z,24.86
2023-05-06T14:33:53.221Z,24.85
2023-05-06T14:36:19.441Z,24.83
2023-05-06T14:38:46.003Z,24.80
2023-05-06T14:41:12.385Z,24.78
2023-05-06T14:43:38.640Z,24.74
2023-05-06T14:46:05.156Z,24.72
2023-05-06T14:48:31.684Z,24.72
2023-05-06T14:50:58.151Z,24.71
2023-05-06T14:53:24.515Z,24.72
2023-05-06T14:55:50.873Z,24.71
2023-05-06T14:58:18.297Z,24.68
2023-05-06T15:00:44.623Z,24.68
2023-05-06T15:03:11.295Z,24.66
2023-05-06T15:05:37.875Z,24.64
2023-05-06T15:08:06.529Z,24.62
2023-05-06T15:10:34.248Z,24.61
2023-05-06T15:13:00.499Z,24.60
2023-05-06T15:15:26.778Z,24.59
2023-05-06T15:17:53.361Z,24.56
2023-05-06T15:20:19.817Z,24.55
2023-05-06T15:22:46.335Z,24.54
2023-05-06T15:25:19.448Z,24.52
2023-05-06T15:27:52.756Z,24.50
2023-05-06T15:30:19.013Z,24.49
2023-05-06T15:32:45.357Z,24.48
2023-05-06T15:35:12.102Z,24.47
2023-05-06T15:37:38.570Z,24.46
2023-05-06T15:40:04.790Z,24.46
2023-05-06T15:42:31.006Z,24.47
2023-05-06T15:44:57.242Z,24.44
2023-05-06T15:47:23.495Z,24.43
2023-05-06T15:49:54.551Z,24.40
2023-05-06T15:52:21.422Z,24.38
2023-05-06T15:54:49.860Z,24.37
2023-05-06T15:57:16.284Z,24.36
2023-05-06T15:59:42.560Z,24.34
2023-05-06T16:04:38.182Z,24.31
2023-05-06T16:07:04.915Z,24.29
2023-05-06T16:09:31.234Z,24.27
2023-05-06T16:11:57.579Z,24.26
2023-05-06T16:14:23.857Z,24.15
2023-05-06T16:16:50.236Z,24.22
2023-05-06T16:19:16.660Z,24.23
2023-05-06T16:21:42.994Z,24.26
2023-05-06T16:24:09.598Z,24.29
2023-05-06T16:26:41.522Z,24.31
2023-05-06T16:29:07.809Z,24.33
2023-05-06T16:34:01.684Z,24.36
2023-05-06T16:36:27.974Z,24.38
2023-05-06T16:38:54.291Z,24.36
2023-05-06T16:41:20.669Z,24.37
2023-05-06T16:43:47.088Z,24.38
2023-05-06T16:46:13.454Z,24.37
2023-05-06T16:48:39.834Z,24.28
2023-05-06T16:51:06.233Z,24.37
2023-05-06T16:53:32.543Z,24.37
2023-05-06T16:55:58.873Z,24.36
2023-05-06T16:58:25.196Z,24.37
2023-05-06T17:00:51.935Z,24.36
2023-05-06T17:03:18.515Z,24.35
2023-05-06T17:08:12.014Z,24.33
2023-05-06T17:10:38.463Z,24.33
2023-05-06T17:13:05.242Z,24.32
2023-05-06T17:15:31.678Z,24.30
2023-05-06T17:17:58.190Z,24.29
2023-05-06T17:20:24.559Z,24.28
2023-05-06T17:22:50.809Z,24.27
2023-05-06T17:25:17.252Z,24.25
2023-05-06T17:27:43.701Z,24.24
2023-05-06T17:30:10.128Z,24.21
2023-05-06T17:32:36.593Z,24.21
2023-05-06T17:35:02.971Z,24.17
2023-05-06T17:37:29.231Z,24.16
2023-05-06T17:39:55.790Z,24.13
2023-05-06T17:42:22.115Z,24.12
2023-05-06T17:44:48.363Z,24.11
2023-05-06T17:47:14.681Z,24.08
2023-05-06T17:49:40.940Z,24.06
2023-05-06T17:52:07.339Z,24.04
2023-05-06T17:54:33.850Z,24.01
2023-05-06T17:57:00.240Z,23.99
2023-05-06T17:59:28.126Z,23.97
2023-05-06T18:01:54.674Z,23.95
2023-05-06T18:04:21.058Z,23.94
2023-05-06T18:06:47.384Z,23.91
2023-05-06T18:09:13.815Z,23.88
2023-05-06T18:11:40.171Z,23.87
2023-05-06T18:14:06.488Z,23.84
2023-05-06T18:16:33.158Z,23.81
2023-05-06T18:18:59.444Z,23.78
2023-05-06T18:21:25.734Z,23.75
2023-05-06T18:23:56.042Z,23.73
2023-05-06T18:29:01.679Z,23.67
2023-05-06T18:31:28.037Z,23.65
2023-05-06T18:33:54.399Z,23.63
2023-05-06T18:36:20.655Z,23.61
2023-05-06T18:38:47.020Z,23.58
2023-05-06T18:41:13.476Z,23.56
2023-05-06T18:43:40.679Z,23.54
2023-05-06T18:46:07.026Z,23.52
2023-05-06T18:48:33.386Z,23.49
2023-05-06T18:50:59.710Z,23.48
2023-05-06T18:53:26.361Z,23.45
2023-05-06T18:55:52.686Z,23.43
2023-05-06T18:58:18.965Z,23.41
2023-05-06T19:00:45.211Z,23.39
2023-05-06T19:03:11.585Z,23.36
2023-05-06T19:05:37.827Z,23.33
2023-05-06T19:08:04.506Z,23.32
2023-05-06T19:10:30.832Z,23.22
2023-05-06T19:12:59.385Z,23.29
2023-05-06T19:15:25.740Z,23.26
2023-05-06T19:17:52.058Z,23.24
2023-05-06T19:20:18.382Z,23.22
2023-05-06T19:22:44.651Z,23.20
2023-05-06T19:25:11.202Z,23.19
2023-05-06T19:27:37.750Z,23.17
2023-05-06T19:30:04.323Z,23.15
2023-05-06T19:32:30.637Z,23.13
2023-05-06T19:34:56.942Z,23.12
2023-05-06T19:37:23.214Z,23.10
2023-05-06T19:39:49.572Z,23.09
2023-05-06T19:42:16.064Z,23.07
2023-05-06T19:44:42.356Z,23.06
2023-05-06T19:47:08.682Z,23.02
2023-05-06T19:49:35.087Z,23.01
2023-05-06T19:52:01.484Z,22.99
2023-05-06T19:54:27.887Z,22.97
2023-05-06T19:56:54.227Z,22.95
2023-05-06T19:59:20.581Z,22.93
2023-05-06T20:01:47.047Z,22.92
2023-05-06T20:04:13.524Z,22.90
2023-05-06T20:06:39.765Z,22.89
2023-05-06T20:09:07.099Z,22.88
2023-05-06T20:11:33.385Z,22.85
2023-05-06T20:13:59.780Z,22.83
2023-05-06T20:16:26.094Z,22.82
2023-05-06T20:18:52.481Z,22.81
2023-05-06T20:21:18.995Z,22.79
2023-05-06T20:23:45.394Z,22.77
2023-05-06T20:26:11.708Z,22.76
2023-05-06T20:28:38.052Z,22.73
2023-05-06T20:31:04.362Z,22.72
2023-05-06T20:33:30.749Z,22.70
2023-05-06T20:35:57.107Z,22.68
2023-05-06T20:38:23.370Z,22.67
2023-05-06T20:40:49.838Z,22.64
2023-05-06T20:43:16.192Z,22.63
2023-05-06T20:45:42.647Z,22.61
2023-05-06T20:48:09.123Z,22.59
2023-05-06T20:50:35.474Z,22.53
2023-05-06T20:53:01.758Z,22.56
2023-05-06T20:55:28.079Z,22.56
2023-05-06T20:57:54.401Z,22.55
2023-05-06T21:00:20.884Z,22.54
2023-05-06T21:02:47.251Z,22.53
2023-05-06T21:05:13.824Z,22.52
2023-05-06T21:07:40.461Z,22.51
2023-05-06T21:10:06.981Z,22.50
2023-05-06T21:12:33.292Z,22.48
2023-05-06T21:14:59.705Z,22.49
2023-05-06T21:17:26.016Z,22.46
2023-05-06T21:19:52.607Z,22.45
2023-05-06T21:22:18.891Z,22.43
2023-05-06T21:24:45.457Z,22.42
2023-05-06T21:27:11.855Z,22.40
2023-05-06T21:29:38.212Z,22.38
2023-05-06T21:32:04.465Z,22.37
2023-05-06T21:34:30.778Z,22.37
2023-05-06T21:36:57.099Z,22.35
2023-05-06T21:39:23.450Z,22.34
2023-05-06T21:41:49.887Z,22.31
2023-05-06T21:44:16.238Z,22.30
2023-05-06T21:46:42.561Z,22.30
2023-05-06T21:49:08.886Z,22.29
2023-05-06T21:51:35.201Z,22.26
2023-05-06T21:54:01.493Z,22.27
2023-05-06T21:56:27.809Z,22.25
2023-05-06T21:58:54.117Z,22.23
2023-05-06T22:01:20.484Z,22.22
2023-05-06T22:03:46.852Z,22.21
2023-05-06T22:06:13.272Z,22.19
2023-05-06T22:08:39.635Z,22.18
2023-05-06T22:11:06.091Z,22.17
2023-05-06T22:13:32.502Z,22.16
2023-05-06T22:15:58.887Z,22.16
2023-05-06T22:18:25.389Z,22.14
2023-05-06T22:20:51.925Z,22.13
2023-05-06T22:23:18.236Z,22.11
2023-05-06T22:25:45.064Z,22.11
2023-05-06T22:28:11.619Z,22.09
2023-05-06T22:30:37.946Z,22.07
2023-05-06T22:33:07.201Z,22.07
2023-05-06T22:35:34.937Z,22.07
2023-05-06T22:38:01.321Z,22.04
2023-05-06T22:40:27.606Z,22.04
2023-05-06T22:42:53.857Z,22.03
2023-05-06T22:45:26.194Z,22.01
2023-05-06T22:50:57.473Z,21.98
2023-05-06T22:53:27.339Z,21.97
2023-05-06T22:55:53.806Z,21.95
2023-05-06T22:58:20.190Z,21.90
2023-05-06T23:00:48.207Z,21.85
2023-05-06T23:03:16.245Z,21.81
2023-05-06T23:05:42.690Z,21.76
2023-05-06T23:10:59.772Z,21.68
2023-05-06T23:13:26.317Z,21.65
2023-05-06T23:15:56.018Z,21.61
2023-05-06T23:21:13.377Z,21.54
2023-05-06T23:23:40.238Z,21.51
2023-05-06T23:26:06.738Z,21.49
2023-05-06T23:28:38.901Z,21.44
2023-05-06T23:31:18.208Z,21.42
2023-05-06T23:33:45.425Z,21.39
2023-05-06T23:36:11.697Z,21.37
2023-05-06T23:38:38.159Z,21.34
2023-05-06T23:41:04.733Z,21.31
2023-05-06T23:43:30.932Z,21.29
2023-05-06T23:45:57.250Z,21.27
2023-05-06T23:48:23.911Z,21.23
2023-05-06T23:50:50.254Z,21.20
2023-05-06T23:53:16.543Z,21.17
2023-05-06T23:55:42.793Z,21.14
2023-05-06T23:58:09.189Z,21.11
